createdAt,value
2018-09-03T00:01:06.974Z,15.80
2018-09-03T00:03:40.210Z,15.80
2018-09-03T00:06:13.417Z,15.80
2018-09-03T00:08:46.620Z,15.70
2018-09-03T00:11:19.779Z,15.70
2018-09-03T00:13:53.069Z,15.70
2018-09-03T00:16:26.433Z,15.70
2018-09-03T00:18:59.675Z,15.70
2018-09-03T00:21:32.994Z,15.70
2018-09-03T00:24:06.563Z,15.70
2018-09-03T00:26:39.853Z,15.80
2018-09-03T00:29:13.141Z,15.80
2018-09-03T00:31:51.868Z,15.80
2018-09-03T00:34:30.645Z,15.80
2018-09-03T00:37:09.336Z,15.70
2018-09-03T00:40:52.089Z,15.80
2018-09-03T00:43:30.855Z,15.70
2018-09-03T00:47:07.804Z,15.70
2018-09-03T00:49:41.249Z,15.70
2018-09-03T00:52:14.532Z,15.70
2018-09-03T00:54:47.985Z,15.70
2018-09-03T00:57:21.298Z,15.70
2018-09-03T00:59:54.520Z,15.80
2018-09-03T01:02:27.867Z,15.80
2018-09-03T01:05:01.121Z,15.70
2018-09-03T01:07:34.396Z,15.70
2018-09-03T01:10:07.696Z,15.70
2018-09-03T01:12:40.988Z,15.70
2018-09-03T01:15:14.295Z,15.80
2018-09-03T01:17:47.662Z,15.80
2018-09-03T01:20:20.970Z,15.70
2018-09-03T01:22:54.267Z,15.70
2018-09-03T01:25:27.672Z,15.70
2018-09-03T01:28:00.957Z,15.70
2018-09-03T01:30:34.264Z,15.70
2018-09-03T01:33:07.732Z,15.70
2018-09-03T01:35:40.991Z,15.70
2018-09-03T01:38:14.300Z,15.60
2018-09-03T01:40:47.550Z,15.60
2018-09-03T01:43:20.905Z,15.60
2018-09-03T01:45:54.242Z,15.60
2018-09-03T01:48:27.515Z,15.60
2018-09-03T01:51:02.142Z,15.70
2018-09-03T01:53:35.444Z,15.80
2018-09-03T01:56:08.933Z,15.80
2018-09-03T01:58:42.224Z,15.70
2018-09-03T02:01:15.522Z,15.70
2018-09-03T02:03:48.792Z,15.70
2018-09-03T02:06:22.124Z,15.80
2018-09-03T02:08:55.405Z,15.80
2018-09-03T02:11:28.711Z,15.70
2018-09-03T02:14:02.000Z,15.70
2018-09-03T02:16:35.905Z,15.60
2018-09-03T02:19:09.328Z,15.60
2018-09-03T02:21:42.592Z,15.60
2018-09-03T02:24:15.895Z,15.60
2018-09-03T02:26:49.177Z,15.60
2018-09-03T02:29:22.432Z,15.60
2018-09-03T02:31:55.703Z,15.60
2018-09-03T02:34:29.051Z,15.60
2018-09-03T02:37:02.349Z,15.60
2018-09-03T02:39:35.651Z,15.60
2018-09-03T02:42:08.895Z,15.60
2018-09-03T02:44:42.176Z,15.70
2018-09-03T02:47:15.442Z,15.70
2018-09-03T02:49:48.825Z,15.70
2018-09-03T02:52:22.113Z,15.80
2018-09-03T02:55:02.075Z,15.80
2018-09-03T02:57:35.330Z,15.70
2018-09-03T03:00:08.594Z,15.70
2018-09-03T03:02:41.949Z,15.70
2018-09-03T03:05:15.250Z,15.70
2018-09-03T03:07:48.544Z,15.70
2018-09-03T03:10:21.837Z,15.70
2018-09-03T03:12:55.105Z,15.70
2018-09-03T03:15:28.542Z,15.80
2018-09-03T03:18:01.786Z,15.80
2018-09-03T03:20:35.088Z,15.80
2018-09-03T03:23:08.382Z,15.80
2018-09-03T03:25:41.672Z,15.80
2018-09-03T03:28:14.948Z,15.80
2018-09-03T03:30:48.384Z,15.80
2018-09-03T03:33:21.689Z,15.80
2018-09-03T03:35:54.979Z,15.80
2018-09-03T03:38:28.275Z,15.80
2018-09-03T03:41:01.582Z,15.80
2018-09-03T03:43:34.803Z,15.90
2018-09-03T03:46:08.171Z,15.80
2018-09-03T03:48:41.526Z,15.80
2018-09-03T03:51:14.889Z,15.90
2018-09-03T03:53:48.249Z,15.90
2018-09-03T03:56:21.542Z,15.90
2018-09-03T03:58:54.837Z,15.80
2018-09-03T04:01:28.145Z,15.90
2018-09-03T04:04:01.415Z,15.90
2018-09-03T04:06:34.715Z,15.80
2018-09-03T04:09:09.439Z,15.80
2018-09-03T04:11:42.670Z,15.90
2018-09-03T04:14:16.065Z,15.90
2018-09-03T04:16:49.426Z,16.00
2018-09-03T04:19:22.718Z,16.00
2018-09-03T04:21:56.014Z,16.00
2018-09-03T04:24:29.220Z,16.00
2018-09-03T04:27:02.567Z,16.00
2018-09-03T04:29:35.845Z,16.00
2018-09-03T04:32:09.134Z,16.00
2018-09-03T04:34:42.529Z,16.10
2018-09-03T04:37:15.807Z,16.00
2018-09-03T04:39:49.190Z,15.90
2018-09-03T04:42:22.466Z,15.90
2018-09-03T04:44:55.863Z,15.80
2018-09-03T04:47:29.186Z,15.90
2018-09-03T04:50:02.497Z,15.90
2018-09-03T04:52:35.841Z,15.80
2018-09-03T04:55:09.133Z,15.80
2018-09-03T04:57:42.413Z,15.80
2018-09-03T05:00:16.125Z,15.90
2018-09-03T05:02:49.428Z,15.80
2018-09-03T05:05:22.983Z,15.90
2018-09-03T05:07:56.228Z,15.90
2018-09-03T05:10:29.506Z,15.90
2018-09-03T05:13:02.778Z,15.90
2018-09-03T05:15:36.051Z,15.90
2018-09-03T05:18:09.403Z,15.90
2018-09-03T05:20:42.812Z,15.80
2018-09-03T05:23:16.156Z,15.90
2018-09-03T05:25:49.575Z,15.90
2018-09-03T05:28:22.989Z,15.90
2018-09-03T05:30:56.369Z,15.90
2018-09-03T05:33:29.776Z,15.90
2018-09-03T05:36:03.121Z,15.90
2018-09-03T05:38:36.617Z,15.90
2018-09-03T05:41:10.032Z,15.90
2018-09-03T05:43:43.653Z,16.00
2018-09-03T05:46:16.867Z,16.00
2018-09-03T05:48:50.259Z,16.00
2018-09-03T05:51:23.578Z,16.10
2018-09-03T05:53:56.851Z,16.00
2018-09-03T05:56:30.145Z,16.00
2018-09-03T05:59:03.673Z,15.90
2018-09-03T06:01:37.561Z,15.90
2018-09-03T06:04:10.961Z,15.80
2018-09-03T06:06:44.240Z,15.90
2018-09-03T06:09:17.637Z,16.00
2018-09-03T06:11:51.104Z,16.00
2018-09-03T06:14:24.460Z,16.00
2018-09-03T06:16:57.725Z,16.00
2018-09-03T06:19:31.025Z,16.00
2018-09-03T06:22:04.414Z,15.90
2018-09-03T06:24:37.687Z,16.00
2018-09-03T06:27:11.270Z,16.00
2018-09-03T06:29:44.692Z,16.10
2018-09-03T06:32:18.002Z,16.00
2018-09-03T06:34:51.274Z,16.00
2018-09-03T06:37:24.606Z,16.00
2018-09-03T06:39:57.965Z,16.00
2018-09-03T06:42:31.281Z,15.90
2018-09-03T06:45:04.779Z,15.90
2018-09-03T06:47:38.094Z,15.90
2018-09-03T06:50:11.382Z,16.00
2018-09-03T06:52:44.781Z,16.00
2018-09-03T06:55:18.177Z,16.10
2018-09-03T06:57:51.516Z,16.10
2018-09-03T07:00:24.865Z,16.10
2018-09-03T07:02:58.198Z,16.10
2018-09-03T07:05:31.537Z,16.20
2018-09-03T07:08:04.848Z,16.30
2018-09-03T07:10:38.127Z,16.30
2018-09-03T07:13:11.425Z,16.40
2018-09-03T07:15:44.688Z,16.40
2018-09-03T07:18:18.010Z,16.40
2018-09-03T07:20:51.314Z,16.40
2018-09-03T07:23:24.703Z,16.40
2018-09-03T07:25:58.048Z,16.50
2018-09-03T07:28:31.374Z,16.60
2018-09-03T07:31:04.684Z,16.60
2018-09-03T07:33:37.940Z,16.60
2018-09-03T07:36:11.182Z,16.60
2018-09-03T07:38:44.563Z,16.60
2018-09-03T07:41:17.966Z,16.60
2018-09-03T07:43:51.235Z,16.60
2018-09-03T07:46:24.457Z,16.60
2018-09-03T07:48:57.776Z,16.60
2018-09-03T07:51:31.031Z,16.70
2018-09-03T07:54:04.446Z,16.80
2018-09-03T07:56:37.737Z,16.80
2018-09-03T07:59:11.107Z,16.70
2018-09-03T08:01:44.523Z,16.70
2018-09-03T08:04:17.824Z,16.80
2018-09-03T08:06:51.139Z,16.80
2018-09-03T08:09:24.458Z,16.80
2018-09-03T08:11:57.799Z,16.90
2018-09-03T08:14:31.182Z,16.90
2018-09-03T08:17:04.490Z,16.90
2018-09-03T08:19:37.822Z,16.90
2018-09-03T08:22:11.083Z,17.00
2018-09-03T08:24:44.371Z,17.10
2018-09-03T08:27:17.679Z,17.10
2018-09-03T08:29:51.026Z,17.10
2018-09-03T08:32:24.429Z,17.10
2018-09-03T08:34:57.753Z,17.10
2018-09-03T08:37:31.146Z,17.10
2018-09-03T08:40:04.582Z,17.10
2018-09-03T08:42:37.990Z,17.10
2018-09-03T08:45:11.388Z,17.10
2018-09-03T08:47:44.736Z,17.10
2018-09-03T08:50:18.045Z,17.20
2018-09-03T08:52:51.364Z,17.20
2018-09-03T08:55:24.631Z,17.30
2018-09-03T08:57:58.020Z,17.20
2018-09-03T09:00:31.567Z,17.30
2018-09-03T09:03:07.572Z,17.30
2018-09-03T09:05:40.904Z,17.40
2018-09-03T09:08:14.402Z,17.50
2018-09-03T09:10:47.817Z,17.60
2018-09-03T09:13:21.126Z,17.60
2018-09-03T09:15:54.368Z,17.70
2018-09-03T09:18:27.651Z,17.60
2018-09-03T09:21:00.968Z,17.50
2018-09-03T09:23:34.446Z,17.60
2018-09-03T09:26:07.784Z,17.50
2018-09-03T09:28:41.126Z,17.40
2018-09-03T09:31:14.430Z,17.30
2018-09-03T09:33:47.838Z,17.40
2018-09-03T09:36:21.111Z,17.50
2018-09-03T09:38:54.405Z,17.50
2018-09-03T09:41:27.809Z,17.70
2018-09-03T09:44:01.943Z,17.90
2018-09-03T09:46:35.327Z,18.10
2018-09-03T09:49:08.768Z,18.10
2018-09-03T09:51:42.388Z,18.30
2018-09-03T09:54:16.015Z,18.20
2018-09-03T09:56:49.536Z,18.20
2018-09-03T09:59:22.917Z,18.30
2018-09-03T10:01:56.313Z,18.40
2018-09-03T10:04:29.691Z,18.40
2018-09-03T10:07:03.071Z,18.30
2018-09-03T10:09:36.410Z,18.30
2018-09-03T10:12:09.703Z,18.30
2018-09-03T10:14:43.025Z,18.20
2018-09-03T10:17:16.270Z,18.20
2018-09-03T10:19:49.605Z,18.20
2018-09-03T10:22:22.918Z,18.10
2018-09-03T10:24:56.246Z,18.00
2018-09-03T10:27:29.576Z,18.00
2018-09-03T10:30:02.777Z,18.00
2018-09-03T10:32:36.087Z,17.90
2018-09-03T10:35:09.379Z,17.90
2018-09-03T10:37:42.766Z,17.90
2018-09-03T10:40:15.945Z,17.80
2018-09-03T10:42:49.190Z,17.80
2018-09-03T10:45:22.516Z,17.70
2018-09-03T10:47:55.706Z,17.60
2018-09-03T10:50:29.053Z,17.50
2018-09-03T10:53:02.324Z,17.50
2018-09-03T10:55:35.655Z,17.60
2018-09-03T10:58:09.289Z,17.50
2018-09-03T11:00:42.596Z,17.60
2018-09-03T11:03:15.848Z,17.60
2018-09-03T11:05:49.125Z,17.70
2018-09-03T11:08:22.388Z,17.80
2018-09-03T11:10:55.637Z,17.80
2018-09-03T11:13:28.825Z,17.90
2018-09-03T11:16:02.058Z,17.90
2018-09-03T11:18:35.381Z,18.00
2018-09-03T11:21:08.608Z,18.10
2018-09-03T11:23:41.758Z,18.10
2018-09-03T11:26:14.996Z,18.20
2018-09-03T11:28:48.178Z,18.30
2018-09-03T11:31:21.520Z,18.40
2018-09-03T11:33:54.689Z,18.40
2018-09-03T11:36:27.874Z,18.40
2018-09-03T11:39:01.026Z,18.50
2018-09-03T11:41:34.753Z,18.60
2018-09-03T11:44:14.795Z,18.60
2018-09-03T11:46:48.038Z,18.80
2018-09-03T11:49:21.179Z,18.90
2018-09-03T11:51:54.361Z,19.00
2018-09-03T11:54:27.520Z,19.00
2018-09-03T11:57:00.685Z,19.00
2018-09-03T11:59:33.851Z,19.00
2018-09-03T12:02:07.077Z,18.90
2018-09-03T12:04:40.149Z,19.00
2018-09-03T12:07:13.309Z,19.10
2018-09-03T12:09:46.465Z,19.10
2018-09-03T12:12:19.989Z,19.20
2018-09-03T12:14:56.978Z,19.20
2018-09-03T12:17:30.171Z,19.10
2018-09-03T12:20:04.143Z,19.10
2018-09-03T12:22:37.330Z,19.30
2018-09-03T12:25:10.507Z,19.30
2018-09-03T12:27:43.748Z,19.40
2018-09-03T12:30:16.917Z,19.40
2018-09-03T12:32:50.073Z,19.50
2018-09-03T12:35:23.247Z,19.60
2018-09-03T12:37:56.495Z,19.60
2018-09-03T12:40:29.695Z,19.50
2018-09-03T12:43:02.879Z,19.50
2018-09-03T12:45:41.451Z,19.50
2018-09-03T12:48:14.634Z,19.60
2018-09-03T12:50:47.801Z,19.80
2018-09-03T12:53:21.007Z,19.90
2018-09-03T12:55:54.219Z,19.80
2018-09-03T13:01:07.061Z,19.90
2018-09-03T13:03:40.253Z,19.90
2018-09-03T13:06:13.511Z,19.80
2018-09-03T13:08:46.651Z,19.80
2018-09-03T13:11:19.819Z,19.70
2018-09-03T13:13:52.981Z,19.70
2018-09-03T13:16:26.231Z,19.80
2018-09-03T13:18:59.381Z,19.80
2018-09-03T13:24:11.995Z,20.00
2018-09-03T13:26:45.165Z,20.00
2018-09-03T13:29:18.355Z,20.00
2018-09-03T13:31:51.651Z,20.10
2018-09-03T13:34:24.815Z,20.10
2018-09-03T13:36:57.938Z,20.10
2018-09-03T13:39:31.131Z,20.10
2018-09-03T13:42:04.360Z,20.10
2018-09-03T13:44:37.521Z,20.20
2018-09-03T13:47:10.686Z,20.10
2018-09-03T13:49:43.955Z,20.10
2018-09-03T13:52:17.415Z,20.00
2018-09-03T13:54:50.650Z,19.90
2018-09-03T13:57:23.757Z,19.90
2018-09-03T13:59:56.921Z,19.90
2018-09-03T14:02:30.078Z,20.00
2018-09-03T14:05:03.290Z,20.10
2018-09-03T14:07:36.474Z,20.20
2018-09-03T14:10:09.690Z,20.30
2018-09-03T14:12:43.050Z,20.40
2018-09-03T14:15:16.217Z,20.40
2018-09-03T14:17:49.374Z,20.40
2018-09-03T14:20:22.598Z,21.00
2018-09-03T14:22:55.741Z,21.30
2018-09-03T14:25:29.025Z,21.40
2018-09-03T14:28:02.166Z,21.50
2018-09-03T14:30:35.389Z,21.60
2018-09-03T14:33:08.530Z,21.60
2018-09-03T14:35:41.729Z,21.50
2018-09-03T14:38:14.876Z,21.70
2018-09-03T14:40:48.060Z,21.90
2018-09-03T14:43:21.210Z,21.90
2018-09-03T14:45:54.452Z,22.00
2018-09-03T14:48:27.607Z,22.00
2018-09-03T14:51:00.873Z,22.10
2018-09-03T14:53:34.150Z,22.10
2018-09-03T14:56:07.310Z,22.10
2018-09-03T14:58:40.503Z,21.90
2018-09-03T15:01:13.743Z,21.90
2018-09-03T15:03:46.893Z,22.00
2018-09-03T15:06:20.110Z,21.90
2018-09-03T15:15:45.202Z,21.40
2018-09-03T15:18:18.337Z,21.00
2018-09-03T15:20:51.521Z,20.80
2018-09-03T15:23:24.777Z,20.80
2018-09-03T15:25:57.954Z,20.80
2018-09-03T15:28:31.126Z,20.80
2018-09-03T15:31:04.286Z,20.80
2018-09-03T15:33:37.443Z,20.60
2018-09-03T15:36:10.641Z,20.50
2018-09-03T15:38:43.763Z,20.40
2018-09-03T15:41:16.959Z,20.40
2018-09-03T15:43:50.111Z,20.40
2018-09-03T15:46:23.267Z,20.30
2018-09-03T15:48:56.449Z,20.30
2018-09-03T15:51:29.613Z,20.30
2018-09-03T15:54:02.839Z,20.30
2018-09-03T15:56:35.958Z,20.30
2018-09-03T15:59:09.464Z,20.30
2018-09-03T16:01:42.650Z,20.20
2018-09-03T16:04:15.803Z,20.30
2018-09-03T16:06:49.002Z,20.30
2018-09-03T16:09:22.141Z,20.30
2018-09-03T16:11:55.349Z,20.30
2018-09-03T16:14:28.496Z,20.30
2018-09-03T16:17:02.076Z,20.30
2018-09-03T16:19:35.238Z,20.20
2018-09-03T16:22:08.938Z,20.30
2018-09-03T16:24:42.145Z,20.30
2018-09-03T16:27:15.339Z,20.30
2018-09-03T16:29:48.490Z,20.30
2018-09-03T16:32:21.803Z,20.30
2018-09-03T16:34:54.956Z,20.30
2018-09-03T16:37:28.104Z,20.30
2018-09-03T16:40:01.262Z,20.20
2018-09-03T16:42:34.449Z,20.20
2018-09-03T16:45:07.613Z,20.20
2018-09-03T16:47:40.771Z,20.20
2018-09-03T16:50:14.135Z,20.30
2018-09-03T16:52:47.407Z,20.30
2018-09-03T16:55:20.679Z,20.30
2018-09-03T16:57:53.782Z,20.30
2018-09-03T17:00:26.959Z,20.30
2018-09-03T17:03:00.151Z,20.30
2018-09-03T17:05:33.301Z,20.30
2018-09-03T17:08:06.581Z,20.20
2018-09-03T17:10:39.618Z,20.20
2018-09-03T17:13:12.807Z,20.20
2018-09-03T17:15:45.966Z,20.20
2018-09-03T17:18:19.144Z,20.20
2018-09-03T17:20:52.317Z,20.10
2018-09-03T17:23:25.504Z,20.10
2018-09-03T17:25:58.665Z,20.00
2018-09-03T17:28:31.886Z,20.00
2018-09-03T17:31:05.693Z,20.00
2018-09-03T17:33:38.894Z,19.90
2018-09-03T17:36:12.150Z,19.90
2018-09-03T17:38:45.294Z,19.80
2018-09-03T17:41:18.438Z,19.70
2018-09-03T17:43:51.675Z,19.60
2018-09-03T17:46:24.839Z,19.60
2018-09-03T17:48:58.005Z,19.60
2018-09-03T17:51:31.272Z,19.50
2018-09-03T17:54:04.453Z,19.50
2018-09-03T17:56:37.656Z,19.40
2018-09-03T17:59:10.857Z,19.30
2018-09-03T18:01:44.022Z,19.20
2018-09-03T18:04:17.271Z,19.20
2018-09-03T18:06:50.419Z,19.10
2018-09-03T18:09:23.636Z,19.00
2018-09-03T18:11:56.758Z,18.90
2018-09-03T18:14:29.944Z,18.80
2018-09-03T18:17:03.177Z,18.60
2018-09-03T18:19:36.380Z,18.50
2018-09-03T18:22:09.560Z,18.40
2018-09-03T18:24:42.861Z,18.30
2018-09-03T18:27:16.025Z,18.10
2018-09-03T18:29:49.214Z,17.90
2018-09-03T18:32:22.379Z,17.70
2018-09-03T18:34:55.546Z,17.70
2018-09-03T18:37:28.702Z,17.80
2018-09-03T18:40:01.900Z,17.70
2018-09-03T18:42:35.067Z,17.60
2018-09-03T18:45:08.757Z,17.60
2018-09-03T18:47:41.924Z,17.60
2018-09-03T18:50:15.218Z,17.50
2018-09-03T18:52:48.365Z,17.50
2018-09-03T18:55:21.619Z,17.60
2018-09-03T18:57:54.759Z,17.60
2018-09-03T19:00:27.941Z,17.60
2018-09-03T19:03:01.066Z,17.60
2018-09-03T19:05:34.212Z,17.60
2018-09-03T19:08:07.369Z,17.50
2018-09-03T19:10:40.539Z,17.40
2018-09-03T19:13:13.686Z,17.40
2018-09-03T19:15:46.874Z,17.40
2018-09-03T19:18:20.034Z,17.40
2018-09-03T19:20:53.188Z,17.50
2018-09-03T19:23:26.449Z,17.50
2018-09-03T19:25:59.684Z,17.30
2018-09-03T19:28:32.889Z,17.20
2018-09-03T19:31:06.062Z,17.20
2018-09-03T19:33:39.264Z,17.20
2018-09-03T19:36:12.456Z,17.30
2018-09-03T19:38:45.598Z,17.30
2018-09-03T19:41:18.755Z,17.40
2018-09-03T19:43:51.932Z,17.40
2018-09-03T19:46:25.113Z,17.40
2018-09-03T19:48:58.266Z,17.40
2018-09-03T19:51:31.449Z,17.30
2018-09-03T19:54:04.693Z,17.30
2018-09-03T19:56:37.866Z,35.20
2018-09-03T19:59:11.013Z,39.30
2018-09-03T20:01:44.293Z,30.60
2018-09-03T20:04:17.542Z,25.40
2018-09-03T20:06:50.738Z,22.20
2018-09-03T20:09:23.900Z,20.30
2018-09-03T20:11:57.095Z,19.30
2018-09-03T20:14:30.325Z,18.80
2018-09-03T20:17:03.624Z,18.50
2018-09-03T20:19:36.742Z,18.30
2018-09-03T20:22:13.398Z,18.10
2018-09-03T20:24:46.648Z,18.00
2018-09-03T20:27:19.803Z,17.90
2018-09-03T20:29:53.046Z,17.70
2018-09-03T20:32:26.237Z,17.60
2018-09-03T20:34:59.385Z,17.50
2018-09-03T20:37:32.569Z,17.50
2018-09-03T20:40:06.066Z,17.50
2018-09-03T20:42:39.231Z,17.50
2018-09-03T20:45:12.423Z,17.40
2018-09-03T20:47:45.731Z,17.40
2018-09-03T20:50:18.857Z,17.40
2018-09-03T20:52:52.022Z,17.30
2018-09-03T20:55:25.187Z,17.30
2018-09-03T20:57:58.373Z,17.20
2018-09-03T21:00:31.577Z,17.10
2018-09-03T21:03:04.758Z,17.10
2018-09-03T21:05:37.953Z,17.20
2018-09-03T21:08:11.106Z,17.10
2018-09-03T21:10:44.271Z,17.20
2018-09-03T21:13:17.517Z,17.20
2018-09-03T21:15:52.557Z,17.10
2018-09-03T21:18:25.738Z,17.10
2018-09-03T21:20:58.934Z,17.00
2018-09-03T21:23:32.443Z,17.00
2018-09-03T21:26:12.562Z,17.10
2018-09-03T21:28:45.746Z,17.00
2018-09-03T21:31:18.966Z,17.00
2018-09-03T21:33:52.183Z,16.90
2018-09-03T21:36:25.317Z,17.00
2018-09-03T21:38:58.541Z,16.90
2018-09-03T21:41:31.637Z,16.90
2018-09-03T21:44:04.845Z,16.90
2018-09-03T21:46:38.016Z,16.90
2018-09-03T21:49:11.273Z,16.90
2018-09-03T21:51:44.567Z,16.90
2018-09-03T21:54:17.740Z,16.90
2018-09-03T21:56:51.143Z,16.90
2018-09-03T21:59:24.324Z,16.80
2018-09-03T22:01:57.571Z,16.80
2018-09-03T22:04:30.807Z,16.90
2018-09-03T22:07:04.101Z,16.80
2018-09-03T22:09:37.278Z,16.80
2018-09-03T22:12:10.521Z,16.80
2018-09-03T22:14:43.705Z,16.80
2018-09-03T22:17:16.896Z,16.70
2018-09-03T22:19:50.098Z,16.70
2018-09-03T22:22:23.343Z,16.80
2018-09-03T22:24:56.564Z,16.80
2018-09-03T22:27:29.726Z,16.80
2018-09-03T22:30:02.901Z,16.80
2018-09-03T22:32:36.058Z,16.80
2018-09-03T22:35:09.266Z,16.80
2018-09-03T22:37:42.455Z,16.80
2018-09-03T22:40:15.639Z,16.80
2018-09-03T22:42:49.442Z,16.80
2018-09-03T22:45:22.599Z,16.60
2018-09-03T22:47:55.788Z,16.60
2018-09-03T22:50:29.342Z,16.60
2018-09-03T22:53:02.489Z,16.70
2018-09-03T22:55:35.670Z,16.70
2018-09-03T22:58:08.899Z,16.70
2018-09-03T23:00:42.186Z,16.70
2018-09-03T23:03:15.401Z,16.70
2018-09-03T23:05:48.670Z,16.70
2018-09-03T23:08:21.737Z,16.60
2018-09-03T23:10:54.950Z,16.50
2018-09-03T23:13:28.527Z,16.50
2018-09-03T23:16:01.693Z,16.50
2018-09-03T23:18:34.939Z,16.40
2018-09-03T23:21:08.113Z,16.40
2018-09-03T23:23:41.319Z,16.50
2018-09-03T23:26:14.489Z,16.60
2018-09-03T23:28:47.640Z,16.60
2018-09-03T23:31:20.811Z,16.50
2018-09-03T23:33:54.036Z,16.50
2018-09-03T23:36:27.202Z,16.50
2018-09-03T23:39:00.360Z,16.50
2018-09-03T23:41:33.545Z,16.40
2018-09-03T23:44:06.826Z,16.40
2018-09-03T23:46:40.141Z,16.30
2018-09-03T23:49:13.294Z,16.40
2018-09-03T23:51:48.138Z,16.40
2018-09-03T23:54:21.289Z,16.40
2018-09-03T23:56:54.650Z,16.40
2018-09-03T23:59:27.880Z,16.30
